createdAt,value
2022-11-18T00:01:35.056Z,7.30
2022-11-18T00:04:01.900Z,7.30
2022-11-18T00:06:29.389Z,7.30
2022-11-18T00:08:56.240Z,7.30
2022-11-18T00:11:42.647Z,7.30
2022-11-18T00:14:24.924Z,7.20
2022-11-18T00:17:01.869Z,7.20
2022-11-18T00:19:32.972Z,7.20
2022-11-18T00:21:59.660Z,7.20
2022-11-18T00:24:26.648Z,7.20
2022-11-18T00:26:53.543Z,7.10
2022-11-18T00:29:20.988Z,7.20
2022-11-18T00:31:48.132Z,7.20
2022-11-18T00:34:15.853Z,7.20
2022-11-18T00:36:43.300Z,7.10
2022-11-18T00:39:14.514Z,7.20
2022-11-18T00:42:00.049Z,7.20
2022-11-18T00:44:26.828Z,7.10
2022-11-18T00:46:53.466Z,7.10
2022-11-18T00:49:20.144Z,7.00
2022-11-18T00:51:46.805Z,7.00
2022-11-18T00:54:13.576Z,7.00
2022-11-18T00:56:40.234Z,7.00
2022-11-18T00:59:06.908Z,7.10
2022-11-18T01:01:33.724Z,7.10
2022-11-18T01:04:00.447Z,7.00
2022-11-18T01:06:27.096Z,7.00
2022-11-18T01:08:53.845Z,7.00
2022-11-18T01:11:39.424Z,7.00
2022-11-18T01:14:06.180Z,7.00
2022-11-18T01:16:32.873Z,7.10
2022-11-18T01:18:59.512Z,7.00
2022-11-18T01:21:26.221Z,7.00
2022-11-18T01:23:53.403Z,7.00
2022-11-18T01:26:20.142Z,7.00
2022-11-18T01:28:46.785Z,6.90
2022-11-18T01:31:14.900Z,7.00
2022-11-18T01:33:41.918Z,7.00
2022-11-18T01:36:15.576Z,7.00
2022-11-18T01:38:42.290Z,7.00
2022-11-18T01:41:08.967Z,7.00
2022-11-18T01:43:49.176Z,7.20
2022-11-18T01:46:16.190Z,7.10
2022-11-18T01:48:43.903Z,7.30
2022-11-18T01:51:16.317Z,7.20
2022-11-18T01:53:46.876Z,6.90
2022-11-18T01:56:16.144Z,6.80
2022-11-18T01:58:48.837Z,6.90
2022-11-18T02:01:15.583Z,6.70
2022-11-18T02:03:43.213Z,6.70
2022-11-18T02:06:10.333Z,6.70
2022-11-18T02:08:40.193Z,6.80
2022-11-18T02:11:09.699Z,6.90
2022-11-18T02:13:36.445Z,6.80
2022-11-18T02:16:15.940Z,7.00
2022-11-18T02:18:51.318Z,7.00
2022-11-18T02:21:36.474Z,7.00
2022-11-18T02:24:03.656Z,7.00
2022-11-18T02:26:33.370Z,7.00
2022-11-18T02:29:06.713Z,7.00
2022-11-18T02:31:42.476Z,7.00
2022-11-18T02:34:27.981Z,7.10
2022-11-18T02:37:00.049Z,7.00
2022-11-18T02:39:32.213Z,7.00
2022-11-18T02:42:00.600Z,7.00
2022-11-18T02:44:29.415Z,6.90
2022-11-18T02:46:59.889Z,6.90
2022-11-18T02:49:31.054Z,7.00
2022-11-18T02:51:58.275Z,6.90
2022-11-18T02:54:26.332Z,6.90
2022-11-18T02:56:53.434Z,6.90
2022-11-18T02:59:20.317Z,6.80
2022-11-18T03:01:47.436Z,6.80
2022-11-18T03:04:14.713Z,7.00
2022-11-18T03:06:42.682Z,7.00
2022-11-18T03:09:22.555Z,6.90
2022-11-18T03:11:49.179Z,7.00
2022-11-18T03:14:22.134Z,6.90
2022-11-18T03:16:48.728Z,7.00
2022-11-18T03:19:30.571Z,7.00
2022-11-18T03:22:10.167Z,7.00
2022-11-18T03:24:39.973Z,7.00
2022-11-18T03:27:12.917Z,7.00
2022-11-18T03:29:43.164Z,7.00
2022-11-18T03:32:21.807Z,7.00
2022-11-18T03:34:50.897Z,7.00
2022-11-18T03:37:18.967Z,7.00
2022-11-18T03:39:49.047Z,7.00
2022-11-18T03:42:19.642Z,7.00
2022-11-18T03:44:52.385Z,7.00
2022-11-18T03:47:22.925Z,7.00
2022-11-18T03:50:02.017Z,7.00
2022-11-18T03:52:31.447Z,7.00
2022-11-18T03:55:01.475Z,7.00
2022-11-18T03:57:34.580Z,7.00
2022-11-18T04:00:07.050Z,7.00
2022-11-18T04:02:34.042Z,7.00
2022-11-18T04:05:01.980Z,7.00
2022-11-18T04:07:28.765Z,7.00
2022-11-18T04:10:02.513Z,6.90
2022-11-18T04:12:31.372Z,6.80
2022-11-18T04:14:59.032Z,7.00
2022-11-18T04:17:27.794Z,7.00
2022-11-18T04:19:54.664Z,6.80
2022-11-18T04:22:21.333Z,6.80
2022-11-18T04:24:48.021Z,6.80
2022-11-18T04:27:14.752Z,6.80
2022-11-18T04:29:41.404Z,7.10
2022-11-18T04:32:08.091Z,6.90
2022-11-18T04:34:34.791Z,6.90
2022-11-18T04:37:01.451Z,6.90
2022-11-18T04:39:28.200Z,7.20
2022-11-18T04:41:57.862Z,6.80
2022-11-18T04:44:25.586Z,6.70
2022-11-18T04:46:52.590Z,6.80
2022-11-18T04:49:19.922Z,6.70
2022-11-18T04:51:47.502Z,6.80
2022-11-18T04:54:14.831Z,6.80
2022-11-18T04:56:47.520Z,6.80
2022-11-18T04:59:16.968Z,6.80
2022-11-18T05:01:43.979Z,6.80
2022-11-18T05:04:14.789Z,6.80
2022-11-18T05:06:41.506Z,6.60
2022-11-18T05:09:08.487Z,6.70
2022-11-18T05:11:53.584Z,6.80
2022-11-18T05:14:20.324Z,6.70
2022-11-18T05:16:46.969Z,6.80
2022-11-18T05:19:13.710Z,6.70
2022-11-18T05:21:40.352Z,6.80
2022-11-18T05:24:07.079Z,6.70
2022-11-18T05:26:33.784Z,6.70
2022-11-18T05:29:00.594Z,6.70
2022-11-18T05:31:27.397Z,6.70
2022-11-18T05:33:54.772Z,6.80
2022-11-18T05:36:21.607Z,6.70
2022-11-18T05:38:48.720Z,6.70
2022-11-18T05:41:35.875Z,6.70
2022-11-18T05:44:03.535Z,6.70
2022-11-18T05:46:30.858Z,6.60
2022-11-18T05:48:57.936Z,6.60
2022-11-18T05:51:24.593Z,6.60
2022-11-18T05:53:52.010Z,6.70
2022-11-18T05:56:37.594Z,6.70
2022-11-18T05:59:04.438Z,6.50
2022-11-18T06:01:45.231Z,6.50
2022-11-18T06:04:15.350Z,6.50
2022-11-18T06:06:42.967Z,6.50
2022-11-18T06:09:10.968Z,6.50
2022-11-18T06:11:43.275Z,6.50
2022-11-18T06:14:11.909Z,6.50
2022-11-18T06:16:40.987Z,6.50
2022-11-18T06:19:08.005Z,6.40
2022-11-18T06:21:34.846Z,6.40
2022-11-18T06:24:02.651Z,6.40
2022-11-18T06:26:29.716Z,6.40
2022-11-18T06:28:56.657Z,6.50
2022-11-18T06:31:23.385Z,6.40
2022-11-18T06:33:50.003Z,6.40
2022-11-18T06:36:16.649Z,6.80
2022-11-18T06:38:43.281Z,7.20
2022-11-18T06:41:10.152Z,7.10
2022-11-18T06:43:41.294Z,6.90
2022-11-18T06:46:28.332Z,6.80
2022-11-18T06:48:55.016Z,6.70
2022-11-18T06:51:21.745Z,6.70
2022-11-18T06:53:48.489Z,6.70
2022-11-18T06:56:16.152Z,6.60
2022-11-18T06:58:43.104Z,6.60
2022-11-18T07:01:23.605Z,6.60
2022-11-18T07:03:50.772Z,6.60
2022-11-18T07:06:25.257Z,6.70
2022-11-18T07:08:52.422Z,6.70
2022-11-18T07:11:20.928Z,6.70
2022-11-18T07:13:48.034Z,6.80
2022-11-18T07:16:14.674Z,6.80
2022-11-18T07:18:42.156Z,6.80
2022-11-18T07:21:10.173Z,6.80
2022-11-18T07:23:37.041Z,6.90
2022-11-18T07:26:03.880Z,6.90
2022-11-18T07:28:32.181Z,7.00
2022-11-18T07:31:02.277Z,6.90
2022-11-18T07:33:29.531Z,7.00
2022-11-18T07:35:56.489Z,7.00
2022-11-18T07:38:23.179Z,7.00
2022-11-18T07:40:49.802Z,6.90
2022-11-18T07:43:16.441Z,7.00
2022-11-18T07:45:43.109Z,6.90
2022-11-18T07:48:09.752Z,6.90
2022-11-18T07:50:36.442Z,7.00
2022-11-18T07:53:03.106Z,7.00
2022-11-18T07:55:32.319Z,7.10
2022-11-18T07:57:59.165Z,7.10
2022-11-18T08:00:25.804Z,7.10
2022-11-18T08:02:52.546Z,7.10
2022-11-18T08:05:19.259Z,7.20
2022-11-18T08:07:46.028Z,7.20
2022-11-18T08:10:12.832Z,7.30
2022-11-18T08:12:39.501Z,7.20
2022-11-18T08:15:06.417Z,7.20
2022-11-18T08:17:33.244Z,7.20
2022-11-18T08:19:59.890Z,7.30
2022-11-18T08:22:26.684Z,7.30
2022-11-18T08:24:53.647Z,7.30
2022-11-18T08:27:20.386Z,7.40
2022-11-18T08:29:47.030Z,7.40
2022-11-18T08:32:13.740Z,7.50
2022-11-18T08:34:40.418Z,7.50
2022-11-18T08:37:07.100Z,7.50
2022-11-18T08:39:33.789Z,7.50
2022-11-18T08:42:00.529Z,7.30
2022-11-18T08:44:27.192Z,7.20
2022-11-18T08:46:53.941Z,7.20
2022-11-18T08:49:21.082Z,7.30
2022-11-18T08:51:48.033Z,7.20
2022-11-18T08:54:14.736Z,7.30
2022-11-18T08:56:41.425Z,7.10
2022-11-18T08:59:08.841Z,7.20
2022-11-18T09:01:36.837Z,7.30
2022-11-18T09:04:03.903Z,7.20
2022-11-18T09:06:30.575Z,7.30
2022-11-18T09:09:00.797Z,7.30
2022-11-18T09:11:31.661Z,7.20
2022-11-18T09:16:45.517Z,7.30
2022-11-18T09:19:45.080Z,7.30
2022-11-18T09:21:59.060Z,7.20
2022-11-18T09:24:25.703Z,7.20
2022-11-18T09:26:53.670Z,7.30
2022-11-18T09:29:25.262Z,7.20
2022-11-18T09:31:52.576Z,7.10
2022-11-18T09:34:19.588Z,7.30
2022-11-18T09:36:46.584Z,7.70
2022-11-18T09:39:13.314Z,7.50
2022-11-18T09:41:53.096Z,7.50
2022-11-18T09:44:19.793Z,7.40
2022-11-18T09:46:50.611Z,7.60
2022-11-18T09:49:28.648Z,7.70
2022-11-18T09:51:55.857Z,7.50
2022-11-18T09:54:23.718Z,7.60
2022-11-18T09:56:51.790Z,7.60
2022-11-18T09:59:23.476Z,7.50
2022-11-18T10:01:51.076Z,7.30
2022-11-18T10:04:19.398Z,7.20
2022-11-18T10:06:47.030Z,7.20
2022-11-18T10:09:13.689Z,7.10
2022-11-18T10:11:52.108Z,7.20
2022-11-18T10:14:26.241Z,7.20
2022-11-18T10:17:07.234Z,6.90
2022-11-18T10:19:40.135Z,7.00
2022-11-18T10:22:20.956Z,6.70
2022-11-18T10:24:52.299Z,6.60
2022-11-18T10:27:19.715Z,6.80
2022-11-18T10:29:53.079Z,6.90
2022-11-18T10:32:19.911Z,6.90
2022-11-18T10:34:53.956Z,6.80
2022-11-18T10:37:38.645Z,6.70
2022-11-18T10:40:23.256Z,6.90
2022-11-18T10:42:49.927Z,6.60
2022-11-18T10:45:24.990Z,6.60
2022-11-18T10:48:02.637Z,6.80
2022-11-18T10:50:39.586Z,6.70
2022-11-18T10:53:07.360Z,6.80
2022-11-18T10:55:34.209Z,6.80
2022-11-18T10:58:03.064Z,6.80
2022-11-18T11:00:38.860Z,6.80
2022-11-18T11:03:25.373Z,6.90
2022-11-18T11:06:10.968Z,6.70
2022-11-18T11:08:46.502Z,6.70
2022-11-18T11:11:25.962Z,6.70
2022-11-18T11:13:58.186Z,6.60
2022-11-18T11:16:26.573Z,6.70
2022-11-18T11:18:56.488Z,6.40
2022-11-18T11:21:23.213Z,6.40
2022-11-18T11:23:49.850Z,6.50
2022-11-18T11:29:31.041Z,6.90
2022-11-18T11:32:00.802Z,7.20
2022-11-18T11:34:39.769Z,7.20
2022-11-18T11:37:25.399Z,7.40
2022-11-18T11:40:01.466Z,7.30
2022-11-18T11:42:43.515Z,7.10
2022-11-18T11:45:17.867Z,6.90
2022-11-18T11:48:03.441Z,7.10
2022-11-18T11:50:33.305Z,6.90
2022-11-18T11:53:03.097Z,6.80
2022-11-18T11:55:37.521Z,6.60
2022-11-18T11:58:11.604Z,6.60
2022-11-18T12:00:44.876Z,6.50
2022-11-18T12:03:18.703Z,6.60
2022-11-18T12:05:45.422Z,6.70
2022-11-18T12:08:17.923Z,6.80
2022-11-18T12:10:56.749Z,6.80
2022-11-18T12:13:29.960Z,6.70
2022-11-18T12:16:15.536Z,6.80
2022-11-18T12:18:46.664Z,6.70
2022-11-18T12:21:35.068Z,6.70
2022-11-18T12:24:17.094Z,6.70
2022-11-18T12:26:44.568Z,6.60
2022-11-18T12:29:20.887Z,6.60
2022-11-18T12:31:58.261Z,6.50
2022-11-18T12:34:24.971Z,6.80
2022-11-18T12:36:52.521Z,6.60
2022-11-18T12:39:25.434Z,6.70
2022-11-18T12:42:14.012Z,6.50
2022-11-18T12:44:41.363Z,6.60
2022-11-18T12:47:11.732Z,6.50
2022-11-18T12:49:38.500Z,6.60
2022-11-18T12:52:25.172Z,6.50
2022-11-18T12:54:52.140Z,6.60
2022-11-18T12:57:20.709Z,6.50
2022-11-18T12:59:47.430Z,6.40
2022-11-18T13:02:17.274Z,6.40
2022-11-18T13:04:47.569Z,6.40
2022-11-18T13:07:36.864Z,6.40
2022-11-18T13:10:11.800Z,6.40
2022-11-18T13:12:38.561Z,6.50
2022-11-18T13:15:29.149Z,6.40
2022-11-18T13:18:06.070Z,6.30
2022-11-18T13:20:35.513Z,6.10
2022-11-18T13:23:23.678Z,6.10
2022-11-18T13:25:50.819Z,6.10
2022-11-18T13:28:17.558Z,6.10
2022-11-18T13:30:48.026Z,6.00
2022-11-18T13:33:14.817Z,6.10
2022-11-18T13:35:41.566Z,6.00
2022-11-18T13:38:28.119Z,5.90
2022-11-18T13:41:04.395Z,6.00
2022-11-18T13:43:32.369Z,6.00
2022-11-18T13:46:11.475Z,5.90
2022-11-18T13:48:40.935Z,6.00
2022-11-18T13:51:07.697Z,6.00
2022-11-18T13:53:37.096Z,6.00
2022-11-18T13:56:05.231Z,6.00
2022-11-18T13:58:40.056Z,6.00
2022-11-18T14:01:19.005Z,6.10
2022-11-18T14:03:48.471Z,6.10
2022-11-18T14:06:27.413Z,6.10
2022-11-18T14:09:09.453Z,6.20
2022-11-18T14:11:37.406Z,6.30
2022-11-18T14:14:04.207Z,6.30
2022-11-18T14:16:33.314Z,6.20
2022-11-18T14:18:59.990Z,6.20
2022-11-18T14:21:38.176Z,6.20
2022-11-18T14:24:05.688Z,6.30
2022-11-18T14:26:34.278Z,6.30
2022-11-18T14:29:02.862Z,6.30
2022-11-18T14:31:30.806Z,6.20
2022-11-18T14:34:17.278Z,6.30
2022-11-18T14:36:44.686Z,6.30
2022-11-18T14:39:27.517Z,6.30
2022-11-18T14:41:54.705Z,6.30
2022-11-18T14:44:22.474Z,6.20
2022-11-18T14:46:53.310Z,6.40
2022-11-18T14:49:22.454Z,6.20
2022-11-18T14:51:49.983Z,6.30
2022-11-18T14:54:25.131Z,6.20
2022-11-18T14:56:54.365Z,6.20
2022-11-18T14:59:21.224Z,6.10
2022-11-18T15:01:48.411Z,6.10
2022-11-18T15:04:17.255Z,6.20
2022-11-18T15:06:44.171Z,6.10
2022-11-18T15:09:11.623Z,6.10
2022-11-18T15:11:38.334Z,6.10
2022-11-18T15:14:05.146Z,6.00
2022-11-18T15:16:32.462Z,6.00
2022-11-18T15:19:00.715Z,6.00
2022-11-18T15:21:27.781Z,5.90
2022-11-18T15:23:54.460Z,5.80
2022-11-18T15:26:21.109Z,5.80
2022-11-18T15:28:51.760Z,5.80
2022-11-18T15:31:18.732Z,5.90
2022-11-18T15:33:45.867Z,5.90
2022-11-18T15:36:16.954Z,5.70
2022-11-18T15:38:43.670Z,5.80
2022-11-18T15:41:21.408Z,5.90
2022-11-18T15:43:48.809Z,5.90
2022-11-18T15:46:17.433Z,5.80
2022-11-18T15:48:44.152Z,5.80
2022-11-18T15:51:12.288Z,5.80
2022-11-18T15:53:39.418Z,5.80
2022-11-18T15:56:15.281Z,5.80
2022-11-18T15:58:42.137Z,5.80
2022-11-18T16:01:08.851Z,5.80
2022-11-18T16:03:35.543Z,5.80
2022-11-18T16:06:02.239Z,5.70
2022-11-18T16:08:29.868Z,5.80
2022-11-18T16:11:15.231Z,5.80
2022-11-18T16:13:42.091Z,5.90
2022-11-18T16:16:17.462Z,5.90
2022-11-18T16:18:44.180Z,6.00
2022-11-18T16:21:10.813Z,5.90
2022-11-18T16:23:37.608Z,5.70
2022-11-18T16:26:04.399Z,5.80
2022-11-18T16:28:31.081Z,5.80
2022-11-18T16:31:16.240Z,5.70
2022-11-18T16:33:43.073Z,5.80
2022-11-18T16:36:09.757Z,5.90
2022-11-18T16:38:36.399Z,5.80
2022-11-18T16:41:23.006Z,5.90
2022-11-18T16:43:50.078Z,5.90
2022-11-18T16:46:16.725Z,5.90
2022-11-18T16:48:43.388Z,5.90
2022-11-18T16:51:17.200Z,5.90
2022-11-18T16:53:43.902Z,5.90
2022-11-18T16:56:10.572Z,6.00
2022-11-18T16:58:37.202Z,6.00
2022-11-18T17:01:19.851Z,6.00
2022-11-18T17:03:49.969Z,6.00
2022-11-18T17:06:16.702Z,5.80
2022-11-18T17:08:43.441Z,5.80
2022-11-18T17:11:10.799Z,5.90
2022-11-18T17:13:38.298Z,5.90
2022-11-18T17:16:06.317Z,5.90
2022-11-18T17:18:33.100Z,5.90
2022-11-18T17:21:12.122Z,5.90
2022-11-18T17:23:39.722Z,6.00
2022-11-18T17:26:07.932Z,6.00
2022-11-18T17:28:35.372Z,6.00
2022-11-18T17:31:09.435Z,5.90
2022-11-18T17:33:36.468Z,5.80
2022-11-18T17:36:07.177Z,5.90
2022-11-18T17:38:34.724Z,6.00
2022-11-18T17:41:01.630Z,6.00
2022-11-18T17:43:28.628Z,5.90
2022-11-18T17:45:56.801Z,6.10
2022-11-18T17:48:24.543Z,6.10
2022-11-18T17:50:51.310Z,6.10
2022-11-18T17:53:18.383Z,6.00
2022-11-18T17:55:45.154Z,6.10
2022-11-18T17:58:12.297Z,6.20
2022-11-18T18:00:39.355Z,6.10
2022-11-18T18:03:06.425Z,5.90
2022-11-18T18:05:33.112Z,5.80
2022-11-18T18:07:59.778Z,5.80
2022-11-18T18:10:27.841Z,5.90
2022-11-18T18:13:13.370Z,5.90
2022-11-18T18:15:40.264Z,5.90
2022-11-18T18:18:06.937Z,5.90
2022-11-18T18:20:33.976Z,5.90
2022-11-18T18:23:00.748Z,5.90
2022-11-18T18:25:27.404Z,5.90
2022-11-18T18:27:54.026Z,5.80
2022-11-18T18:30:20.736Z,5.60
2022-11-18T18:32:52.262Z,5.60
2022-11-18T18:35:19.471Z,5.70
2022-11-18T18:37:46.245Z,5.70
2022-11-18T18:40:13.725Z,5.60
2022-11-18T18:42:40.536Z,5.50
2022-11-18T18:45:26.110Z,5.50
2022-11-18T18:47:52.806Z,5.30
2022-11-18T18:50:21.059Z,5.30
2022-11-18T18:52:50.511Z,5.20
2022-11-18T18:55:17.258Z,5.20
2022-11-18T18:57:43.961Z,5.30
2022-11-18T19:00:11.033Z,5.10
2022-11-18T19:02:37.756Z,5.10
2022-11-18T19:05:04.782Z,5.20
2022-11-18T19:07:31.526Z,5.30
2022-11-18T19:09:58.391Z,5.40
2022-11-18T19:12:43.161Z,5.30
2022-11-18T19:15:13.200Z,5.40
2022-11-18T19:17:40.624Z,5.40
2022-11-18T19:20:27.023Z,5.40
2022-11-18T19:22:53.732Z,5.30
2022-11-18T19:25:20.877Z,5.10
2022-11-18T19:27:47.546Z,5.20
2022-11-18T19:30:14.212Z,5.00
2022-11-18T19:32:41.414Z,5.20
2022-11-18T19:35:08.965Z,5.10
2022-11-18T19:37:35.792Z,5.20
2022-11-18T19:40:07.254Z,5.40
2022-11-18T19:42:37.665Z,5.10
2022-11-18T19:45:04.727Z,5.00
2022-11-18T19:47:32.066Z,5.10
2022-11-18T19:49:58.890Z,5.10
2022-11-18T19:52:25.606Z,5.10
2022-11-18T19:54:52.349Z,5.20
2022-11-18T19:57:19.042Z,5.20
2022-11-18T19:59:46.386Z,5.30
2022-11-18T20:02:13.220Z,5.10
2022-11-18T20:04:40.007Z,5.10
2022-11-18T20:07:06.803Z,5.30
2022-11-18T20:09:33.550Z,5.20
2022-11-18T20:12:00.244Z,5.20
2022-11-18T20:14:26.880Z,5.20
2022-11-18T20:16:53.964Z,5.10
2022-11-18T20:19:21.006Z,5.20
2022-11-18T20:21:48.804Z,5.20
2022-11-18T20:24:16.747Z,5.20
2022-11-18T20:26:44.185Z,5.00
2022-11-18T20:29:10.934Z,5.10
2022-11-18T20:31:37.758Z,4.90
2022-11-18T20:34:04.739Z,4.90
2022-11-18T20:36:32.882Z,4.80
2022-11-18T20:39:04.813Z,4.80
2022-11-18T20:41:32.352Z,4.90
2022-11-18T20:43:59.645Z,4.80
2022-11-18T20:46:26.526Z,4.70
2022-11-18T20:48:53.450Z,4.70
2022-11-18T20:51:23.251Z,4.70
2022-11-18T20:53:51.126Z,4.70
2022-11-18T20:56:18.804Z,4.60
2022-11-18T20:58:45.595Z,4.60
2022-11-18T21:01:23.167Z,4.70
2022-11-18T21:03:54.310Z,4.70
2022-11-18T21:06:22.388Z,4.60
2022-11-18T21:08:49.392Z,4.60
2022-11-18T21:11:16.374Z,4.50
2022-11-18T21:14:01.662Z,4.60
2022-11-18T21:16:28.449Z,4.60
2022-11-18T21:18:55.439Z,4.50
2022-11-18T21:21:40.960Z,4.40
2022-11-18T21:24:08.314Z,4.40
2022-11-18T21:26:35.488Z,4.40
2022-11-18T21:29:03.592Z,4.40
2022-11-18T21:31:30.560Z,4.40
2022-11-18T21:33:57.500Z,4.30
2022-11-18T21:36:25.295Z,4.40
2022-11-18T21:38:52.259Z,4.40
2022-11-18T21:41:19.218Z,4.60
2022-11-18T21:46:33.901Z,4.60
2022-11-18T21:49:00.832Z,4.70
2022-11-18T21:51:28.033Z,4.70
2022-11-18T21:53:54.884Z,4.60
2022-11-18T21:56:22.786Z,4.70
2022-11-18T21:58:49.909Z,4.70
2022-11-18T22:01:24.446Z,4.70
2022-11-18T22:03:55.612Z,4.70
2022-11-18T22:06:24.185Z,4.70
2022-11-18T22:08:51.029Z,4.70
2022-11-18T22:11:17.766Z,4.70
2022-11-18T22:13:44.481Z,4.80
2022-11-18T22:16:12.580Z,4.70
2022-11-18T22:18:40.454Z,4.70
2022-11-18T22:21:08.630Z,4.70
2022-11-18T22:23:35.306Z,4.80
2022-11-18T22:26:08.612Z,4.70
2022-11-18T22:28:35.788Z,4.70
2022-11-18T22:31:03.715Z,4.70
2022-11-18T22:33:31.151Z,4.60
2022-11-18T22:36:08.347Z,4.60
2022-11-18T22:38:35.018Z,4.60
2022-11-18T22:41:31.417Z,4.70
2022-11-18T22:44:01.465Z,4.60
2022-11-18T22:46:32.289Z,4.60
2022-11-18T22:48:59.351Z,4.60
2022-11-18T22:51:26.152Z,4.50
2022-11-18T22:54:09.662Z,4.50
2022-11-18T22:56:36.657Z,4.50
2022-11-18T22:59:04.057Z,4.60
2022-11-18T23:01:30.725Z,4.60
2022-11-18T23:03:57.371Z,4.60
2022-11-18T23:06:24.083Z,4.70
2022-11-18T23:08:50.727Z,4.70
2022-11-18T23:11:38.294Z,4.80
2022-11-18T23:14:09.159Z,4.80
2022-11-18T23:16:37.291Z,4.60
2022-11-18T23:19:05.126Z,4.70
2022-11-18T23:21:32.611Z,4.70
2022-11-18T23:23:59.289Z,4.80
2022-11-18T23:26:26.395Z,4.70
2022-11-18T23:28:53.096Z,4.90
2022-11-18T23:31:21.048Z,4.80
2022-11-18T23:33:47.860Z,4.80
2022-11-18T23:36:15.418Z,4.90
2022-11-18T23:38:42.395Z,4.90
2022-11-18T23:41:10.429Z,4.90
2022-11-18T23:43:37.579Z,5.00
2022-11-18T23:46:04.734Z,5.00
2022-11-18T23:48:32.167Z,5.00
2022-11-18T23:51:00.207Z,5.10
2022-11-18T23:53:27.584Z,5.10
2022-11-18T23:55:55.004Z,5.10
2022-11-18T23:58:21.780Z,5.10
